Time;durP1;ratioP1;P1;durP2;ratioP2;P2;SDS_P1;SDS_P2;PMS_P1;PMS_P2;Temp;Humidity;BMP_temperature;BMP_pressure;BME280_temperature;BME280_humidity;BME280_pressure;Samples;Min_cycle;Max_cycle;Signal;HPM_P1;HPM_P2
2020/12/02 08:34:07;;;;;;;92.43;33.30;;;;;;;;;;5080610;27;20921;-67
2020/12/02 08:36:32;;;;;;;93.88;35.65;;;;;;;;;;5049967;28;20029;-64
2020/12/02 08:38:58;;;;;;;78.93;31.60;;;;;;;;;;5095521;28;20473;-63
2020/12/02 08:41:23;;;;;;;78.35;33.00;;;;;;;;;;5057482;28;20028;-67
2020/12/02 08:43:49;;;;;;;79.43;32.97;;;;;;;;;;5081228;28;20025;-65
2020/12/02 08:46:16;;;;;;;75.38;30.13;;;;;;;;;;5067508;28;20044;-69
2020/12/02 08:48:42;;;;;;;82.72;33.35;;;;;;;;;;5048738;28;20051;-68
2020/12/02 08:51:10;;;;;;;76.55;32.45;;;;;;;;;;5056087;28;20501;-66
2020/12/02 08:53:37;;;;;;;78.57;33.05;;;;;;;;;;5060221;28;20040;-65
2020/12/02 08:56:02;;;;;;;73.70;33.13;;;;;;;;;;5068260;28;20389;-65
2020/12/02 08:58:28;;;;;;;84.93;33.17;;;;;;;;;;5061589;28;20032;-64
2020/12/02 09:00:54;;;;;;;76.78;33.65;;;;;;;;;;5058977;28;20021;-66
2020/12/02 09:03:22;;;;;;;79.35;32.67;;;;;;;;;;5063611;28;20559;-66
2020/12/02 09:05:48;;;;;;;70.28;30.92;;;;;;;;;;5057096;28;20021;-66
2020/12/02 09:08:13;;;;;;;78.35;31.45;;;;;;;;;;5083476;28;20016;-65
2020/12/02 09:10:39;;;;;;;76.82;33.78;;;;;;;;;;5082908;28;20373;-65
2020/12/02 09:13:04;;;;;;;76.32;32.13;;;;;;;;;;5071549;28;20033;-64
2020/12/02 09:15:30;;;;;;;75.78;32.05;;;;;;;;;;5080562;28;20588;-65
2020/12/02 09:17:55;;;;;;;71.82;31.45;;;;;;;;;;5061396;28;20100;-64
2020/12/02 09:20:21;;;;;;;77.47;32.78;;;;;;;;;;5079118;28;20020;-64
2020/12/02 09:22:47;;;;;;;72.97;32.13;;;;;;;;;;5072148;28;20017;-65
2020/12/02 09:25:13;;;;;;;77.90;32.22;;;;;;;;;;5073942;28;20094;-64
2020/12/02 09:27:38;;;;;;;73.93;32.00;;;;;;;;;;5084503;28;20376;-64
2020/12/02 09:30:05;;;;;;;86.72;31.70;;;;;;;;;;5067519;28;20013;-66
2020/12/02 09:32:30;;;;;;;77.88;33.17;;;;;;;;;;5077313;28;20156;-67
2020/12/02 09:34:56;;;;;;;76.97;32.40;;;;;;;;;;5073613;28;20099;-64
2020/12/02 09:37:21;;;;;;;79.90;33.63;;;;;;;;;;5078668;28;20013;-63
2020/12/02 09:39:47;;;;;;;84.05;35.25;;;;;;;;;;5080472;28;20021;-65
2020/12/02 09:42:18;;;;;;;82.88;35.40;;;;;;;;;;5074393;28;20358;-64
2020/12/02 09:44:45;;;;;;;77.85;33.45;;;;;;;;;;5063167;28;20025;-62
2020/12/02 09:47:14;;;;;;;78.00;32.47;;;;;;;;;;5069197;28;20074;-63
2020/12/02 09:49:40;;;;;;;76.20;31.98;;;;;;;;;;5055907;28;20048;-62
2020/12/02 09:52:09;;;;;;;76.85;31.73;;;;;;;;;;5067372;28;20082;-62
2020/12/02 09:54:39;;;;;;;76.65;34.08;;;;;;;;;;5064262;28;20492;-63
2020/12/02 09:57:11;;;;;;;77.20;33.42;;;;;;;;;;5059124;28;20025;-65
2020/12/02 09:59:37;;;;;;;81.00;33.55;;;;;;;;;;5052251;28;20021;-65
2020/12/02 10:02:12;;;;;;;74.57;34.22;;;;;;;;;;5058215;28;20389;-63
2020/12/02 10:04:40;;;;;;;75.70;32.80;;;;;;;;;;5064465;28;20032;-63
2020/12/02 10:07:11;;;;;;;82.47;34.75;;;;;;;;;;5051914;28;20545;-64
2020/12/02 10:09:46;;;;;;;79.10;34.50;;;;;;;;;;5058825;28;20033;-63
2020/12/02 10:12:21;;;;;;;77.13;34.83;;;;;;;;;;5068538;28;20489;-65
2020/12/02 10:14:56;;;;;;;74.15;31.65;;;;;;;;;;5061661;28;20032;-64
2020/12/02 10:17:31;;;;;;;72.43;33.53;;;;;;;;;;5053228;28;20032;-64
2020/12/02 10:20:07;;;;;;;75.82;31.95;;;;;;;;;;5050585;28;20384;-66
2020/12/02 10:22:42;;;;;;;79.70;35.05;;;;;;;;;;5048277;28;20033;-64
2020/12/02 10:25:10;;;;;;;72.18;33.47;;;;;;;;;;5062818;28;20566;-64
2020/12/02 10:27:36;;;;;;;73.60;34.42;;;;;;;;;;5057027;28;20060;-63
2020/12/02 10:30:03;;;;;;;77.85;34.13;;;;;;;;;;5058400;28;20060;-64
2020/12/02 10:32:38;;;;;;;68.13;32.65;;;;;;;;;;5052677;28;20115;-64
2020/12/02 10:35:04;;;;;;;65.10;30.98;;;;;;;;;;5049869;28;20055;-67
2020/12/02 10:37:32;;;;;;;68.93;32.75;;;;;;;;;;5055921;28;20024;-69
2020/12/02 10:39:57;;;;;;;69.50;33.08;;;;;;;;;;5067401;28;20079;-68
2020/12/02 10:42:32;;;;;;;68.25;33.45;;;;;;;;;;5061304;28;20029;-70
2020/12/02 10:45:08;;;;;;;69.07;32.70;;;;;;;;;;5059595;22;20147;-68
2020/12/02 10:47:44;;;;;;;59.60;30.27;;;;;;;;;;5036328;28;20036;-68
2020/12/02 10:50:09;;;;;;;64.03;32.63;;;;;;;;;;5044286;28;20026;-66
2020/12/02 10:52:35;;;;;;;65.43;31.75;;;;;;;;;;5042651;28;20539;-69
2020/12/02 10:55:00;;;;;;;63.60;32.50;;;;;;;;;;5038121;28;20055;-68
2020/12/02 10:57:26;;;;;;;62.17;30.80;;;;;;;;;;5048587;28;20058;-66
2020/12/02 10:59:52;;;;;;;60.97;33.30;;;;;;;;;;5036876;28;20389;-68
2020/12/02 11:02:19;;;;;;;66.93;32.00;;;;;;;;;;5044358;28;20556;-69
2020/12/02 11:04:48;;;;;;;73.38;33.10;;;;;;;;;;5042340;28;20518;-69
2020/12/02 11:07:20;;;;;;;82.47;41.40;;;;;;;;;;5035654;28;20040;-67
2020/12/02 11:09:55;;;;;;;69.15;36.47;;;;;;;;;;5034699;28;20032;-68
2020/12/02 11:12:30;;;;;;;68.70;34.35;;;;;;;;;;5048797;28;20022;-68
2020/12/02 11:15:05;;;;;;;64.93;34.55;;;;;;;;;;5038386;28;20112;-67
2020/12/02 11:17:32;;;;;;;65.38;34.15;;;;;;;;;;5048183;28;20025;-67
2020/12/02 11:20:06;;;;;;;67.05;34.33;;;;;;;;;;5035991;28;20062;-67
2020/12/02 11:22:38;;;;;;;68.30;33.80;;;;;;;;;;5041783;28;20493;-67
2020/12/02 11:25:11;;;;;;;67.30;35.20;;;;;;;;;;5046206;28;20017;-67
2020/12/02 11:27:36;;;;;;;80.30;37.05;;;;;;;;;;5035398;28;20559;-67
2020/12/02 11:30:07;;;;;;;79.68;34.83;;;;;;;;;;5045385;28;20116;-67
2020/12/02 11:32:33;;;;;;;68.38;33.75;;;;;;;;;;5040622;28;20454;-67
2020/12/02 11:35:02;;;;;;;76.60;35.20;;;;;;;;;;5038129;28;20034;-67
2020/12/02 11:37:33;;;;;;;80.07;35.00;;;;;;;;;;5046604;28;20567;-67
2020/12/02 11:40:03;;;;;;;78.00;34.58;;;;;;;;;;5036845;28;20036;-68
2020/12/02 11:42:28;;;;;;;77.43;34.25;;;;;;;;;;5042032;28;20063;-69
2020/12/02 12:01:52;;;;;;;78.35;32.67;;;;;;;;;;4292953;26;20037;-62
2020/12/02 12:04:27;;;;;;;64.38;30.83;;;;;;;;;;5043557;28;20135;-63
2020/12/02 12:06:54;;;;;;;73.57;32.58;;;;;;;;;;5043242;28;20021;-63
2020/12/02 12:09:28;;;;;;;67.40;32.58;;;;;;;;;;5024357;28;20009;-64
2020/12/02 12:11:56;;;;;;;78.47;38.13;;;;;;;;;;5031121;28;20049;-63
2020/12/02 12:14:32;;;;;;;64.22;30.83;;;;;;;;;;5032913;28;20485;-63
2020/12/02 12:17:06;;;;;;;72.00;32.95;;;;;;;;;;5022369;28;20490;-62
2020/12/02 12:19:45;;;;;;;67.93;32.25;;;;;;;;;;5046342;28;20025;-64
2020/12/02 12:22:26;;;;;;;74.90;34.75;;;;;;;;;;5036908;28;20017;-64
2020/12/02 12:25:00;;;;;;;65.07;30.75;;;;;;;;;;5046853;28;20017;-63
2020/12/02 12:27:27;;;;;;;68.05;30.85;;;;;;;;;;5034392;28;20026;-62
2020/12/02 12:29:54;;;;;;;62.60;31.20;;;;;;;;;;5045688;28;20022;-64
2020/12/02 12:32:26;;;;;;;66.07;33.50;;;;;;;;;;5039655;28;20013;-65
2020/12/02 12:34:52;;;;;;;73.38;33.10;;;;;;;;;;5038258;28;20036;-65
2020/12/02 12:37:23;;;;;;;69.55;32.42;;;;;;;;;;5046130;28;20484;-64
2020/12/02 12:39:56;;;;;;;73.45;33.05;;;;;;;;;;5018492;28;20162;-66
2020/12/02 12:42:22;;;;;;;69.10;32.30;;;;;;;;;;5041294;28;20049;-67
2020/12/02 12:47:25;;;;;;;70.78;32.33;;;;;;;;;;5064111;23;21070;-67
2020/12/02 12:49:52;;;;;;;65.82;31.95;;;;;;;;;;5057839;28;20037;-64
2020/12/02 12:52:19;;;;;;;75.30;34.80;;;;;;;;;;5033214;28;20017;-65
2020/12/02 12:54:45;;;;;;;75.65;35.58;;;;;;;;;;5039864;28;20029;-66
2020/12/02 12:57:13;;;;;;;69.03;34.67;;;;;;;;;;5033641;28;20403;-67
2020/12/02 12:59:39;;;;;;;77.43;34.38;;;;;;;;;;5067194;28;20016;-66
2020/12/02 13:02:05;;;;;;;68.45;32.95;;;;;;;;;;5039018;28;20038;-65
2020/12/02 13:04:30;;;;;;;73.38;34.72;;;;;;;;;;5043486;28;20513;-64
2020/12/02 13:07:05;;;;;;;75.38;36.40;;;;;;;;;;5064414;28;20027;-62
2020/12/02 13:09:38;;;;;;;75.00;36.13;;;;;;;;;;5054742;28;20016;-63
2020/12/02 13:12:13;;;;;;;75.30;35.55;;;;;;;;;;5035917;28;20104;-64
2020/12/02 13:14:46;;;;;;;78.25;36.95;;;;;;;;;;5059303;28;20077;-64
2020/12/02 13:17:21;;;;;;;78.78;36.13;;;;;;;;;;5044561;28;20020;-64
2020/12/02 13:19:56;;;;;;;75.57;36.63;;;;;;;;;;5050942;28;20102;-65
2020/12/02 13:22:28;;;;;;;76.20;35.78;;;;;;;;;;5045371;28;20024;-64
2020/12/02 13:24:59;;;;;;;84.95;37.25;;;;;;;;;;5043426;28;20027;-65
2020/12/02 13:27:25;;;;;;;80.00;35.97;;;;;;;;;;5052935;28;20027;-65
2020/12/02 13:29:59;;;;;;;79.85;35.70;;;;;;;;;;5058474;28;20028;-63
2020/12/02 13:32:29;;;;;;;82.97;35.17;;;;;;;;;;5065389;28;20020;-63
2020/12/02 13:34:55;;;;;;;75.47;34.80;;;;;;;;;;5066805;28;20029;-63
2020/12/02 13:37:21;;;;;;;80.18;35.85;;;;;;;;;;5039816;28;20025;-65
2020/12/02 13:39:46;;;;;;;77.32;35.55;;;;;;;;;;5023791;28;20103;-64
2020/12/02 13:42:12;;;;;;;79.07;36.92;;;;;;;;;;5066713;28;20455;-64
2020/12/02 13:55:45;;;;;;;79.85;36.38;;;;;;;;;;3327982;22;20041;-64
2020/12/02 13:58:20;;;;;;;79.20;36.03;;;;;;;;;;5015649;28;20025;-64
2020/12/02 14:00:54;;;;;;;83.53;36.95;;;;;;;;;;5015598;28;20017;-67
2020/12/02 14:03:29;;;;;;;85.15;37.13;;;;;;;;;;5016130;28;20033;-66
2020/12/02 14:05:59;;;;;;;84.43;38.80;;;;;;;;;;5018628;28;20466;-67
2020/12/02 14:08:25;;;;;;;83.03;38.03;;;;;;;;;;5033486;28;20026;-65
2020/12/02 14:10:52;;;;;;;78.97;36.92;;;;;;;;;;5033096;28;20032;-65
2020/12/02 14:13:18;;;;;;;74.78;36.10;;;;;;;;;;5033854;28;20064;-64
2020/12/02 14:15:43;;;;;;;77.20;35.08;;;;;;;;;;5033213;28;20446;-65
2020/12/02 14:18:11;;;;;;;74.60;35.20;;;;;;;;;;5033413;28;20025;-64
2020/12/02 14:20:36;;;;;;;78.43;36.10;;;;;;;;;;5033385;28;20024;-65
2020/12/02 14:23:03;;;;;;;75.63;35.88;;;;;;;;;;5015226;28;20033;-66
2020/12/02 14:25:29;;;;;;;75.40;35.83;;;;;;;;;;5033357;28;20029;-65
2020/12/02 14:27:56;;;;;;;77.80;35.40;;;;;;;;;;5015325;28;20147;-67
2020/12/02 14:30:23;;;;;;;78.35;36.97;;;;;;;;;;5033052;28;20514;-65
2020/12/02 14:32:49;;;;;;;82.63;37.03;;;;;;;;;;5015495;28;20014;-66
2020/12/02 14:35:16;;;;;;;83.82;37.15;;;;;;;;;;5032811;28;20017;-67
2020/12/02 14:37:42;;;;;;;87.78;39.75;;;;;;;;;;5015388;28;20106;-68
2020/12/02 14:40:09;;;;;;;92.20;39.25;;;;;;;;;;5015548;28;20094;-67
2020/12/02 14:42:36;;;;;;;87.72;37.92;;;;;;;;;;5014613;28;20025;-66
2020/12/02 14:45:01;;;;;;;80.03;35.63;;;;;;;;;;5012519;28;20100;-66
2020/12/02 14:47:27;;;;;;;82.60;36.42;;;;;;;;;;4979755;28;20384;-68
2020/12/02 14:49:52;;;;;;;85.57;37.08;;;;;;;;;;5013023;28;20022;-66
2020/12/02 14:52:18;;;;;;;92.18;39.10;;;;;;;;;;4995943;28;20840;-67
2020/12/02 14:54:43;;;;;;;81.57;36.75;;;;;;;;;;5012932;28;20018;-63
2020/12/02 14:57:16;;;;;;;83.95;36.60;;;;;;;;;;5012269;28;20046;-64
2020/12/02 14:59:50;;;;;;;83.93;37.67;;;;;;;;;;5013119;28;20533;-62
2020/12/02 15:02:17;;;;;;;84.80;38.05;;;;;;;;;;5013392;28;20068;-62
2020/12/02 15:04:44;;;;;;;82.78;35.42;;;;;;;;;;4978956;28;20304;-62
2020/12/02 15:07:18;;;;;;;77.63;36.33;;;;;;;;;;4995873;28;20581;-63
2020/12/02 15:09:51;;;;;;;76.68;35.22;;;;;;;;;;5012639;28;20874;-63
2020/12/02 15:12:18;;;;;;;79.70;35.13;;;;;;;;;;5012125;28;20056;-61
2020/12/02 15:14:43;;;;;;;80.72;36.20;;;;;;;;;;5011645;28;20072;-62
2020/12/02 15:17:10;;;;;;;81.93;36.22;;;;;;;;;;5007948;28;20025;-63
2020/12/02 15:19:35;;;;;;;82.53;33.97;;;;;;;;;;5008047;28;20057;-63
2020/12/02 15:22:06;;;;;;;82.22;36.72;;;;;;;;;;5011013;28;22282;-63
2020/12/02 15:24:32;;;;;;;76.60;34.85;;;;;;;;;;4977180;28;20486;-66
2020/12/02 15:27:00;;;;;;;63.20;26.58;;;;;;;;;;5012442;28;20017;-61
2020/12/02 15:29:27;;;;;;;74.53;31.50;;;;;;;;;;5012492;28;20014;-61
2020/12/02 15:31:55;;;;;;;70.47;33.90;;;;;;;;;;5012409;28;20243;-60
2020/12/02 15:34:21;;;;;;;77.43;36.35;;;;;;;;;;4994932;28;20351;-60
2020/12/02 15:36:49;;;;;;;74.03;34.75;;;;;;;;;;5012050;28;21468;-62
2020/12/02 15:39:25;;;;;;;80.75;38.30;;;;;;;;;;4994644;28;20370;-62
2020/12/02 15:41:52;;;;;;;80.43;36.03;;;;;;;;;;4979478;28;20029;-68
2020/12/02 15:44:19;;;;;;;76.75;35.40;;;;;;;;;;5011941;28;20057;-66
2020/12/02 15:46:55;;;;;;;71.32;35.20;;;;;;;;;;5011951;28;20122;-66
2020/12/02 15:49:30;;;;;;;76.63;36.20;;;;;;;;;;4994607;28;20037;-66
2020/12/02 15:52:01;;;;;;;76.32;36.20;;;;;;;;;;4980262;28;20046;-65
2020/12/02 15:54:37;;;;;;;70.70;33.40;;;;;;;;;;5012051;28;20021;-68
2020/12/02 15:57:12;;;;;;;78.57;34.00;;;;;;;;;;5012099;28;20056;-63
2020/12/02 15:59:47;;;;;;;79.53;34.67;;;;;;;;;;5011603;28;20510;-61
2020/12/02 16:02:12;;;;;;;88.50;43.80;;;;;;;;;;4994193;28;20095;-61
2020/12/02 16:04:40;;;;;;;74.55;35.08;;;;;;;;;;4994814;28;20478;-64
2020/12/02 16:07:15;;;;;;;73.93;33.60;;;;;;;;;;4994067;28;20435;-63
2020/12/02 16:09:41;;;;;;;81.03;36.35;;;;;;;;;;5012213;28;20091;-64
2020/12/02 16:12:09;;;;;;;76.35;34.30;;;;;;;;;;5011516;28;20018;-64
2020/12/02 16:14:35;;;;;;;82.38;36.80;;;;;;;;;;5011131;28;20057;-63
2020/12/02 16:17:00;;;;;;;80.07;38.03;;;;;;;;;;5011553;28;20026;-64
2020/12/02 16:19:26;;;;;;;83.50;38.63;;;;;;;;;;4994187;28;20459;-64
2020/12/02 16:22:02;;;;;;;81.95;39.20;;;;;;;;;;4978030;28;20379;-63
2020/12/02 16:24:27;;;;;;;81.22;36.97;;;;;;;;;;5011862;28;20033;-64
2020/12/02 16:26:55;;;;;;;86.68;39.10;;;;;;;;;;5011338;28;20033;-66
2020/12/02 16:29:21;;;;;;;80.90;37.07;;;;;;;;;;4994227;28;20076;-64
2020/12/02 16:31:48;;;;;;;84.00;36.95;;;;;;;;;;5012109;28;20534;-65
2020/12/02 16:34:14;;;;;;;91.00;39.63;;;;;;;;;;5011634;28;20010;-66
2020/12/02 16:36:40;;;;;;;82.85;36.25;;;;;;;;;;4994045;28;20025;-65
2020/12/02 16:39:06;;;;;;;82.30;35.35;;;;;;;;;;5011362;28;20037;-66
2020/12/02 16:41:39;;;;;;;75.05;35.17;;;;;;;;;;5011058;28;20403;-67
2020/12/02 16:44:09;;;;;;;76.00;33.80;;;;;;;;;;4993451;28;20378;-67
2020/12/02 16:46:38;;;;;;;81.72;34.72;;;;;;;;;;4994174;28;20467;-65
2020/12/02 16:49:13;;;;;;;80.88;35.92;;;;;;;;;;4994149;28;20414;-65
2020/12/02 16:51:48;;;;;;;81.20;34.75;;;;;;;;;;5010315;28;20022;-66
2020/12/02 16:54:19;;;;;;;74.22;35.03;;;;;;;;;;5012822;28;20030;-66
2020/12/02 16:56:54;;;;;;;67.13;32.08;;;;;;;;;;5015067;28;20081;-64
2020/12/02 16:59:19;;;;;;;82.72;35.00;;;;;;;;;;5015695;28;20021;-65
2020/12/02 17:01:53;;;;;;;76.88;35.05;;;;;;;;;;4998191;28;20014;-65
2020/12/02 17:04:22;;;;;;;75.35;34.80;;;;;;;;;;5000120;28;20033;-65
2020/12/02 17:06:49;;;;;;;81.15;36.40;;;;;;;;;;5001157;28;20548;-65
2020/12/02 17:09:14;;;;;;;75.38;35.92;;;;;;;;;;5015089;28;20053;-64
2020/12/02 17:11:40;;;;;;;75.53;34.20;;;;;;;;;;5015072;28;20041;-64
2020/12/02 17:14:12;;;;;;;85.43;36.47;;;;;;;;;;5014128;28;20096;-65
2020/12/02 17:16:39;;;;;;;76.47;35.38;;;;;;;;;;4997263;28;20029;-65
2020/12/02 17:19:14;;;;;;;78.13;36.33;;;;;;;;;;5012634;28;20030;-64
2020/12/02 17:21:43;;;;;;;85.47;36.30;;;;;;;;;;5014222;28;20421;-63
2020/12/02 17:24:19;;;;;;;80.60;35.50;;;;;;;;;;5015008;28;20038;-64
2020/12/02 17:26:48;;;;;;;76.30;33.97;;;;;;;;;;5014437;28;20029;-64
2020/12/02 17:29:23;;;;;;;74.28;34.03;;;;;;;;;;4997254;28;20040;-63
2020/12/02 17:31:51;;;;;;;71.95;33.97;;;;;;;;;;4999268;28;20022;-63
2020/12/02 17:34:17;;;;;;;80.70;35.72;;;;;;;;;;5014771;28;20014;-63
2020/12/02 17:36:52;;;;;;;79.55;36.28;;;;;;;;;;5014544;28;20056;-63
2020/12/02 17:39:27;;;;;;;78.90;34.22;;;;;;;;;;4997031;28;20075;-64
2020/12/02 17:41:53;;;;;;;76.03;35.70;;;;;;;;;;4999112;28;20018;-64
2020/12/02 17:44:29;;;;;;;76.05;34.75;;;;;;;;;;5013815;28;20601;-64
2020/12/02 17:47:01;;;;;;;75.95;35.40;;;;;;;;;;4996868;28;20028;-64
2020/12/02 17:49:28;;;;;;;79.28;33.90;;;;;;;;;;4997134;28;20025;-63
2020/12/02 17:52:03;;;;;;;77.07;36.55;;;;;;;;;;5014324;28;20407;-62
2020/12/02 17:54:28;;;;;;;80.05;34.08;;;;;;;;;;5014289;28;20022;-63
2020/12/02 17:56:55;;;;;;;80.88;34.50;;;;;;;;;;5013884;28;20057;-62
2020/12/02 17:59:23;;;;;;;81.10;36.08;;;;;;;;;;5014228;28;20017;-64
2020/12/02 18:01:58;;;;;;;86.50;36.08;;;;;;;;;;4996671;28;20489;-63
2020/12/02 18:04:25;;;;;;;94.07;38.33;;;;;;;;;;5013817;28;20021;-63
2020/12/02 18:06:51;;;;;;;99.15;45.00;;;;;;;;;;5014070;28;20026;-63
2020/12/02 18:09:18;;;;;;;88.28;38.35;;;;;;;;;;5013706;28;20492;-66
